Time;durP1;ratioP1;P1;durP2;ratioP2;P2;SDS_P1;SDS_P2;PMS_P1;PMS_P2;Temp;Humidity;BMP_temperature;BMP_pressure;BME280_temperature;BME280_humidity;BME280_pressure;Samples;Min_cycle;Max_cycle;Signal;HPM_P1;HPM_P2
2023/01/31 00:01:25;;;;;;;11.50;6.40;;;2.60;99.90;;;;;;5074103;28;20452;-50
2023/01/31 00:03:56;;;;;;;10.30;5.85;;;2.60;99.90;;;;;;5073838;28;20398;-52
2023/01/31 00:06:43;;;;;;;10.60;5.80;;;2.60;99.90;;;;;;5072594;28;20373;-50
2023/01/31 00:09:10;;;;;;;13.98;5.28;;;2.70;99.90;;;;;;5073632;28;20036;-51
2023/01/31 00:11:36;;;;;;;10.18;5.50;;;2.70;99.90;;;;;;5073625;28;20052;-49
2023/01/31 00:14:04;;;;;;;11.65;5.63;;;2.70;99.90;;;;;;5073519;28;20476;-52
2023/01/31 00:16:30;;;;;;;13.77;6.22;;;2.70;99.90;;;;;;5073081;28;20028;-51
2023/01/31 00:18:56;;;;;;;7.82;5.45;;;2.70;99.90;;;;;;5072977;28;20095;-52
2023/01/31 00:21:24;;;;;;;8.43;5.57;;;2.70;99.90;;;;;;5072187;28;20029;-52
2023/01/31 00:23:51;;;;;;;15.70;6.53;;;2.70;99.90;;;;;;5073149;28;20029;-50
2023/01/31 00:26:26;;;;;;;13.30;6.25;;;2.70;99.90;;;;;;5072430;28;20534;-51
2023/01/31 00:28:53;;;;;;;11.70;6.45;;;2.70;99.90;;;;;;5072621;28;20415;-52
2023/01/31 00:31:20;;;;;;;9.50;6.43;;;2.60;99.90;;;;;;5070899;28;20170;-54
2023/01/31 00:33:47;;;;;;;12.60;6.32;;;2.70;99.90;;;;;;5073318;28;20039;-52
2023/01/31 00:36:16;;;;;;;8.90;5.82;;;2.60;99.90;;;;;;5071804;28;20078;-50
2023/01/31 00:38:43;;;;;;;12.10;6.20;;;2.70;99.90;;;;;;5073419;28;20016;-50
2023/01/31 00:41:09;;;;;;;11.10;6.45;;;2.70;99.90;;;;;;5071548;28;20021;-55
2023/01/31 00:43:35;;;;;;;11.13;6.72;;;2.70;99.90;;;;;;5073176;28;20108;-52
2023/01/31 00:46:01;;;;;;;9.15;7.20;;;2.70;99.90;;;;;;5072968;28;20115;-52
2023/01/31 00:48:27;;;;;;;10.45;6.13;;;2.70;99.90;;;;;;5073127;28;20025;-51
2023/01/31 00:50:53;;;;;;;13.73;6.35;;;2.70;99.90;;;;;;5072949;28;20052;-50
2023/01/31 00:53:22;;;;;;;14.13;6.07;;;2.70;99.90;;;;;;5072982;28;20099;-52
2023/01/31 00:55:52;;;;;;;11.73;5.85;;;2.70;99.90;;;;;;5072840;28;20120;-54
2023/01/31 00:58:18;;;;;;;15.93;6.85;;;2.70;99.90;;;;;;5072769;28;20070;-53
2023/01/31 01:00:44;;;;;;;10.23;6.53;;;2.70;99.90;;;;;;5073002;28;20406;-50
2023/01/31 01:03:10;;;;;;;8.70;6.05;;;2.70;99.90;;;;;;5072616;28;20032;-52
2023/01/31 01:05:36;;;;;;;12.02;5.80;;;2.70;99.90;;;;;;5072619;28;20677;-49
2023/01/31 01:08:01;;;;;;;13.80;6.28;;;2.80;99.90;;;;;;5072609;28;20483;-53
2023/01/31 01:10:27;;;;;;;16.38;8.00;;;2.70;99.90;;;;;;5072531;28;20027;-51
2023/01/31 01:12:53;;;;;;;9.07;6.35;;;2.70;99.90;;;;;;5072456;28;20054;-52
2023/01/31 01:15:19;;;;;;;12.57;7.90;;;2.60;99.90;;;;;;5072431;28;20033;-50
2023/01/31 01:17:44;;;;;;;13.60;6.57;;;2.60;99.90;;;;;;5072464;28;20031;-51
2023/01/31 01:20:10;;;;;;;8.85;6.20;;;2.60;99.90;;;;;;5071194;28;20028;-54
2023/01/31 01:22:37;;;;;;;13.30;6.57;;;2.60;99.90;;;;;;5072397;28;20020;-50
2023/01/31 01:25:03;;;;;;;16.63;7.50;;;2.60;99.90;;;;;;5072217;28;20031;-52
2023/01/31 01:27:30;;;;;;;15.60;7.22;;;2.60;99.90;;;;;;5072261;28;20071;-48
2023/01/31 01:29:57;;;;;;;13.65;6.35;;;2.60;99.90;;;;;;5070967;28;20535;-50
2023/01/31 01:32:22;;;;;;;12.10;6.90;;;2.60;99.90;;;;;;5072126;28;20020;-52
2023/01/31 01:34:48;;;;;;;14.20;7.05;;;2.60;99.90;;;;;;5072071;28;20037;-51
2023/01/31 01:37:18;;;;;;;9.00;6.38;;;2.60;99.90;;;;;;5072104;28;20405;-54
2023/01/31 01:39:48;;;;;;;9.57;6.85;;;2.50;99.90;;;;;;5072119;28;20348;-50
2023/01/31 01:42:20;;;;;;;9.70;6.32;;;2.50;99.90;;;;;;5072166;28;20451;-55
2023/01/31 01:44:54;;;;;;;15.27;6.80;;;2.50;99.90;;;;;;5072183;28;20024;-51
2023/01/31 01:47:32;;;;;;;14.35;6.78;;;2.60;99.90;;;;;;5071982;28;20059;-48
2023/01/31 01:50:28;;;;;;;14.85;8.05;;;2.60;99.90;;;;;;5071832;28;20051;-50
2023/01/31 01:53:09;;;;;;;9.95;6.43;;;2.60;99.90;;;;;;5075010;28;20032;-51
2023/01/31 01:55:45;;;;;;;10.65;7.32;;;2.70;99.90;;;;;;5070534;28;20032;-49
2023/01/31 01:58:15;;;;;;;15.32;6.72;;;2.60;99.90;;;;;;5071806;28;20055;-50
2023/01/31 02:00:41;;;;;;;13.25;5.72;;;2.60;99.90;;;;;;5072043;28;20013;-52
2023/01/31 02:03:07;;;;;;;10.50;6.53;;;2.60;99.90;;;;;;5071369;28;20469;-52
2023/01/31 02:05:40;;;;;;;12.10;6.30;;;2.60;99.90;;;;;;5072257;28;20074;-50
2023/01/31 02:08:06;;;;;;;12.30;7.63;;;2.70;99.90;;;;;;5071428;28;20025;-49
2023/01/31 02:10:47;;;;;;;8.85;5.90;;;2.70;99.90;;;;;;5071926;28;20547;-52
2023/01/31 02:13:14;;;;;;;12.23;6.63;;;2.70;99.90;;;;;;5071636;28;20124;-51
2023/01/31 02:15:39;;;;;;;10.20;5.40;;;2.60;99.90;;;;;;5071576;28;20782;-51
2023/01/31 02:18:07;;;;;;;9.77;5.85;;;2.70;99.90;;;;;;5071371;28;20036;-51
2023/01/31 02:20:39;;;;;;;11.32;6.20;;;2.70;99.90;;;;;;5071419;28;20530;-52
2023/01/31 02:23:31;;;;;;;12.43;6.38;;;2.60;99.90;;;;;;5071376;28;20493;-52
2023/01/31 02:26:33;;;;;;;12.25;6.88;;;2.60;99.90;;;;;;5071415;28;20054;-50
2023/01/31 02:29:13;;;;;;;11.05;5.40;;;2.60;99.90;;;;;;5071432;28;20107;-50
2023/01/31 02:32:12;;;;;;;12.38;6.35;;;2.70;99.90;;;;;;5071506;28;20051;-48
2023/01/31 02:35:02;;;;;;;13.30;6.00;;;2.60;99.90;;;;;;5071465;28;20408;-53
2023/01/31 02:38:15;;;;;;;17.48;6.10;;;2.60;99.90;;;;;;5071441;28;20111;-49
2023/01/31 02:41:06;;;;;;;13.27;5.97;;;2.50;99.90;;;;;;5084471;28;20032;-51
2023/01/31 02:44:58;;;;;;;11.85;5.68;;;2.60;99.90;;;;;;5071460;28;20025;-52
2023/01/31 02:46:48;;;;;;;14.63;6.72;;;2.60;99.90;;;;;;5071207;28;20028;-52
2023/01/31 02:49:36;;;;;;;14.55;7.75;;;2.60;99.90;;;;;;5071462;28;20418;-53
2023/01/31 02:52:16;;;;;;;13.02;6.05;;;2.60;99.90;;;;;;5071115;28;20020;-49
2023/01/31 02:57:44;;;;;;;11.70;6.72;;;2.50;99.90;;;;;;5075328;28;20036;-51
2023/01/31 03:00:12;;;;;;;8.82;5.55;;;2.60;99.90;;;;;;5074878;28;20027;-52
2023/01/31 03:02:38;;;;;;;10.63;5.78;;;2.60;99.90;;;;;;5075377;28;20468;-51
2023/01/31 03:05:04;;;;;;;14.40;7.47;;;2.50;99.90;;;;;;5074876;28;20107;-57
2023/01/31 03:07:33;;;;;;;21.65;8.50;;;2.60;99.90;;;;;;5073645;28;20119;-52
2023/01/31 03:10:15;;;;;;;13.20;5.82;;;2.60;99.90;;;;;;5074966;28;20399;-50
2023/01/31 03:12:57;;;;;;;11.30;7.45;;;2.60;99.90;;;;;;5074819;28;20079;-49
2023/01/31 03:18:54;;;;;;;15.90;8.80;;;2.60;99.90;;;;;;5074962;28;20082;-53
2023/01/31 03:21:29;;;;;;;9.52;5.75;;;2.60;99.90;;;;;;5074880;28;20025;-51
2023/01/31 03:23:56;;;;;;;11.10;5.68;;;2.50;99.90;;;;;;5074680;28;20017;-51
2023/01/31 03:26:24;;;;;;;11.60;6.35;;;2.60;99.90;;;;;;5074788;28;20489;-51
2023/01/31 03:28:55;;;;;;;16.00;5.80;;;2.60;99.90;;;;;;5074654;28;20032;-50
2023/01/31 03:31:28;;;;;;;9.90;5.95;;;2.60;99.90;;;;;;5074409;28;20024;-52
2023/01/31 03:34:00;;;;;;;10.30;6.22;;;2.60;99.90;;;;;;5074386;28;20104;-52
2023/01/31 03:36:43;;;;;;;14.85;6.88;;;2.60;99.90;;;;;;5074461;28;20467;-51
2023/01/31 03:39:23;;;;;;;20.08;6.53;;;2.60;99.90;;;;;;5073358;28;20033;-52
2023/01/31 03:41:52;;;;;;;10.50;5.55;;;2.60;99.90;;;;;;5074284;28;20028;-49
2023/01/31 03:44:34;;;;;;;11.82;6.30;;;2.60;99.90;;;;;;5074199;28;20410;-52
2023/01/31 03:47:12;;;;;;;12.55;5.75;;;2.60;99.90;;;;;;5072710;28;20024;-55
2023/01/31 03:49:41;;;;;;;9.18;5.72;;;2.60;99.90;;;;;;5074278;28;20043;-54
2023/01/31 03:52:08;;;;;;;9.45;6.05;;;2.60;99.90;;;;;;5072732;28;20086;-49
2023/01/31 03:54:40;;;;;;;14.82;6.00;;;2.70;99.90;;;;;;5073039;28;20025;-50
2023/01/31 03:57:13;;;;;;;18.00;6.30;;;2.70;99.90;;;;;;5073930;28;20368;-55
2023/01/31 03:59:42;;;;;;;10.52;6.07;;;2.60;99.90;;;;;;5074322;28;20016;-50
2023/01/31 04:02:11;;;;;;;18.65;5.95;;;2.60;99.90;;;;;;5073758;28;20078;-49
2023/01/31 04:04:54;;;;;;;14.95;6.03;;;2.60;99.90;;;;;;5073880;28;20025;-50
2023/01/31 04:07:22;;;;;;;11.77;5.25;;;2.60;99.90;;;;;;5073310;28;20027;-51
2023/01/31 04:09:47;;;;;;;18.65;6.55;;;2.50;99.90;;;;;;5072641;28;20052;-51
2023/01/31 04:12:14;;;;;;;9.52;5.72;;;2.60;99.90;;;;;;5073572;28;20392;-52
2023/01/31 04:14:40;;;;;;;9.27;5.07;;;2.60;99.90;;;;;;5073991;28;20446;-53
2023/01/31 04:17:06;;;;;;;34.05;9.43;;;2.70;99.90;;;;;;5073430;28;20032;-52
2023/01/31 04:19:31;;;;;;;15.32;5.63;;;2.60;99.90;;;;;;5073661;28;20047;-53
2023/01/31 04:21:57;;;;;;;12.43;6.90;;;2.60;99.90;;;;;;5073551;28;20476;-54
2023/01/31 04:24:23;;;;;;;14.38;4.93;;;2.60;99.90;;;;;;5073553;28;20051;-57
2023/01/31 04:26:48;;;;;;;14.55;6.90;;;2.60;99.90;;;;;;5073582;28;20676;-54
2023/01/31 04:29:14;;;;;;;6.95;5.22;;;2.60;99.90;;;;;;5073405;28;20059;-50
2023/01/31 04:31:40;;;;;;;11.45;4.97;;;2.70;99.90;;;;;;5073512;28;20423;-48
2023/01/31 04:34:06;;;;;;;8.50;5.32;;;2.60;99.90;;;;;;5073211;28;20101;-49
2023/01/31 04:36:32;;;;;;;7.43;4.57;;;2.60;99.90;;;;;;5073236;28;20029;-51
2023/01/31 04:38:59;;;;;;;14.85;5.65;;;2.60;99.90;;;;;;5073136;28;20032;-51
2023/01/31 04:41:25;;;;;;;14.63;5.38;;;2.50;99.90;;;;;;5073158;28;20558;-52
2023/01/31 04:43:51;;;;;;;11.82;4.97;;;2.50;99.90;;;;;;5073208;28;20030;-52
2023/01/31 04:46:17;;;;;;;9.77;6.13;;;2.50;99.90;;;;;;5072916;28;20472;-49
2023/01/31 04:48:43;;;;;;;15.25;6.28;;;2.50;99.90;;;;;;5073302;28;20025;-51
2023/01/31 04:51:09;;;;;;;12.98;6.07;;;2.50;99.90;;;;;;5072835;28;20017;-51
2023/01/31 04:53:34;;;;;;;8.73;5.95;;;2.50;99.90;;;;;;5073077;28;20032;-51
2023/01/31 04:56:01;;;;;;;13.07;6.70;;;2.50;99.90;;;;;;5072796;28;20033;-53
2023/01/31 04:58:27;;;;;;;9.77;5.22;;;2.50;99.90;;;;;;5072847;28;20027;-50
2023/01/31 05:00:53;;;;;;;10.80;6.07;;;2.50;99.90;;;;;;5072696;28;20375;-53
2023/01/31 05:03:19;;;;;;;15.05;5.25;;;2.50;99.90;;;;;;5072699;28;20099;-54
2023/01/31 05:05:47;;;;;;;7.45;5.47;;;2.50;99.90;;;;;;5072803;28;20598;-51
2023/01/31 05:08:13;;;;;;;9.35;4.85;;;2.50;99.90;;;;;;5071327;28;20028;-50
2023/01/31 05:10:39;;;;;;;12.88;5.40;;;2.60;99.90;;;;;;5071481;28;20031;-51
2023/01/31 05:13:05;;;;;;;17.02;5.40;;;2.50;99.90;;;;;;5072608;28;20048;-54
2023/01/31 05:15:31;;;;;;;13.90;6.60;;;2.50;99.90;;;;;;5072361;28;20383;-50
2023/01/31 05:18:03;;;;;;;13.68;5.35;;;2.60;99.90;;;;;;5072403;28;20047;-51
2023/01/31 05:20:35;;;;;;;10.80;5.80;;;2.50;99.90;;;;;;5072637;28;20009;-49
2023/01/31 05:23:01;;;;;;;13.15;6.47;;;2.50;99.90;;;;;;5072452;28;20043;-51
2023/01/31 05:25:27;;;;;;;9.07;5.70;;;2.50;99.90;;;;;;5072292;28;20082;-54
2023/01/31 05:27:53;;;;;;;9.95;5.30;;;2.50;99.90;;;;;;5072306;28;20043;-55
2023/01/31 05:30:18;;;;;;;8.82;5.20;;;2.50;99.90;;;;;;5072102;28;20422;-54
2023/01/31 05:32:46;;;;;;;11.05;5.50;;;2.50;99.90;;;;;;5072356;28;20341;-51
2023/01/31 05:35:12;;;;;;;10.32;5.47;;;2.60;99.90;;;;;;5072238;28;20020;-54
2023/01/31 05:37:41;;;;;;;14.85;5.85;;;2.50;99.90;;;;;;5072354;28;20023;-49
2023/01/31 05:40:10;;;;;;;14.20;6.10;;;2.50;99.90;;;;;;5071863;28;20025;-56
2023/01/31 05:42:35;;;;;;;13.05;6.38;;;2.50;99.90;;;;;;5072043;28;20028;-50
2023/01/31 05:45:01;;;;;;;9.45;5.45;;;2.50;99.90;;;;;;5071853;28;20021;-50
2023/01/31 05:47:26;;;;;;;12.05;5.80;;;2.50;99.90;;;;;;5072024;28;20028;-52
2023/01/31 05:49:52;;;;;;;14.65;6.43;;;2.60;99.90;;;;;;5071762;28;20035;-53
2023/01/31 05:52:18;;;;;;;11.57;6.05;;;2.60;99.90;;;;;;5071843;28;20032;-50
2023/01/31 05:54:43;;;;;;;16.23;7.15;;;2.60;99.90;;;;;;5071972;28;20021;-54
2023/01/31 05:57:09;;;;;;;38.65;15.85;;;2.50;99.90;;;;;;5071629;28;20044;-54
2023/01/31 05:59:34;;;;;;;60.17;21.38;;;2.50;99.90;;;;;;5070872;28;20088;-52
2023/01/31 06:02:00;;;;;;;14.25;6.07;;;2.50;99.90;;;;;;5071446;28;20043;-49
2023/01/31 06:04:26;;;;;;;8.75;5.15;;;2.60;99.90;;;;;;5071859;28;20021;-49
2023/01/31 06:06:51;;;;;;;14.27;6.30;;;2.60;99.90;;;;;;5071386;28;20030;-55
2023/01/31 06:09:17;;;;;;;11.15;6.25;;;2.50;99.90;;;;;;5071431;28;20359;-51
2023/01/31 06:11:43;;;;;;;16.30;6.00;;;2.50;99.90;;;;;;5070586;28;20119;-52
2023/01/31 06:14:09;;;;;;;15.38;6.60;;;2.50;99.90;;;;;;5070056;28;20537;-52
2023/01/31 06:16:34;;;;;;;13.85;7.40;;;2.50;99.90;;;;;;5070486;28;20043;-49
2023/01/31 06:19:00;;;;;;;13.30;5.90;;;2.50;99.90;;;;;;5071213;28;20028;-49
2023/01/31 06:21:27;;;;;;;13.45;5.95;;;2.50;99.90;;;;;;5071508;28;20009;-53
2023/01/31 06:23:53;;;;;;;12.85;6.25;;;2.50;99.90;;;;;;5071992;28;20009;-51
2023/01/31 06:26:19;;;;;;;9.45;5.57;;;2.50;99.90;;;;;;5073675;28;20115;-53
2023/01/31 06:28:45;;;;;;;8.43;5.57;;;2.50;99.90;;;;;;5070433;28;20113;-50
2023/01/31 06:31:11;;;;;;;12.65;5.63;;;2.50;99.90;;;;;;5072075;28;20049;-52
2023/01/31 06:33:37;;;;;;;11.60;6.38;;;2.50;99.90;;;;;;5071391;28;20701;-48
2023/01/31 06:36:03;;;;;;;10.80;6.25;;;2.50;99.90;;;;;;5071044;28;20104;-51
2023/01/31 06:38:29;;;;;;;14.52;6.20;;;2.40;99.90;;;;;;5071451;28;20016;-49
2023/01/31 06:40:55;;;;;;;14.23;6.35;;;2.40;99.90;;;;;;5071315;28;20021;-52
2023/01/31 06:43:21;;;;;;;12.88;6.70;;;2.40;99.90;;;;;;5070866;28;20029;-51
2023/01/31 06:45:48;;;;;;;18.08;6.75;;;2.40;99.90;;;;;;5071546;28;20124;-54
2023/01/31 06:48:14;;;;;;;11.43;5.88;;;2.40;99.90;;;;;;5070853;28;20108;-52
2023/01/31 06:50:41;;;;;;;12.55;7.38;;;2.40;99.90;;;;;;5070911;28;20032;-57
2023/01/31 06:53:06;;;;;;;8.07;5.55;;;2.50;99.90;;;;;;5070559;28;20067;-56
2023/01/31 06:55:32;;;;;;;13.70;6.10;;;2.40;99.90;;;;;;5071182;28;20056;-54
2023/01/31 06:57:58;;;;;;;10.85;5.82;;;2.40;99.90;;;;;;5075834;28;20107;-58
2023/01/31 07:00:24;;;;;;;11.38;6.10;;;2.40;99.90;;;;;;5071267;28;20092;-54
2023/01/31 07:02:51;;;;;;;14.40;5.40;;;2.40;99.90;;;;;;5074023;28;20070;-54
2023/01/31 07:05:17;;;;;;;12.90;5.13;;;2.40;99.90;;;;;;5071066;28;20446;-54
2023/01/31 07:07:43;;;;;;;18.30;7.60;;;2.50;99.90;;;;;;5071007;28;20040;-54
2023/01/31 07:10:09;;;;;;;8.35;5.55;;;2.50;99.90;;;;;;5070635;28;20039;-55
2023/01/31 07:12:35;;;;;;;8.30;5.05;;;2.50;99.90;;;;;;5070795;28;20171;-52
2023/01/31 07:15:01;;;;;;;9.73;5.57;;;2.50;99.90;;;;;;5070530;28;20103;-54
2023/01/31 07:17:27;;;;;;;14.10;7.38;;;2.40;99.90;;;;;;5071178;28;20416;-54
2023/01/31 07:19:53;;;;;;;10.57;5.88;;;2.40;99.90;;;;;;5070942;28;20103;-52
2023/01/31 07:22:18;;;;;;;17.83;5.78;;;2.40;99.90;;;;;;5070966;28;20044;-58
2023/01/31 07:24:44;;;;;;;15.75;5.20;;;2.40;99.90;;;;;;5069727;28;20021;-55
2023/01/31 07:27:13;;;;;;;11.48;5.13;;;2.40;99.90;;;;;;5070399;28;20071;-49
2023/01/31 07:29:39;;;;;;;10.25;5.03;;;2.50;99.90;;;;;;5070875;28;20028;-51
2023/01/31 07:32:05;;;;;;;8.05;5.18;;;2.50;99.90;;;;;;5070709;28;20078;-52
2023/01/31 07:34:30;;;;;;;12.98;5.57;;;2.40;99.90;;;;;;5070902;28;20502;-53
2023/01/31 07:36:56;;;;;;;11.15;5.32;;;2.40;99.90;;;;;;5070469;28;20029;-51
2023/01/31 07:39:22;;;;;;;7.95;4.25;;;2.40;99.90;;;;;;5070715;28;20040;-50
2023/01/31 07:41:48;;;;;;;9.07;6.00;;;2.40;99.90;;;;;;5072836;28;20116;-50
2023/01/31 07:44:14;;;;;;;13.07;5.28;;;2.40;99.90;;;;;;5074265;28;20021;-49
2023/01/31 07:46:40;;;;;;;11.95;6.57;;;2.40;99.90;;;;;;5074283;28;20029;-51
2023/01/31 07:49:08;;;;;;;11.77;5.45;;;2.40;99.90;;;;;;5072743;28;20063;-50
2023/01/31 07:51:34;;;;;;;20.10;5.65;;;2.40;99.90;;;;;;5074032;28;20472;-54
2023/01/31 07:54:00;;;;;;;14.07;5.80;;;2.50;99.90;;;;;;5074090;28;20032;-50
2023/01/31 07:56:26;;;;;;;10.30;5.47;;;2.50;99.90;;;;;;5073877;28;20135;-51
2023/01/31 07:58:52;;;;;;;11.60;4.53;;;2.40;99.90;;;;;;5074017;28;20017;-52
2023/01/31 08:04:10;;;;;;;19.60;5.45;;;2.50;99.90;;;;;;5074198;28;21284;-54
2023/01/31 08:06:37;;;;;;;13.05;5.05;;;2.50;99.90;;;;;;5073752;28;20032;-49
2023/01/31 08:09:02;;;;;;;11.18;5.45;;;2.50;99.90;;;;;;5073782;28;20055;-52
2023/01/31 08:11:28;;;;;;;8.82;6.45;;;2.50;99.90;;;;;;5073680;28;20087;-54
2023/01/31 08:13:54;;;;;;;11.43;5.28;;;2.50;99.90;;;;;;5073702;28;20067;-55
2023/01/31 08:16:20;;;;;;;17.42;9.18;;;2.60;99.90;;;;;;5073848;28;20115;-51
2023/01/31 08:18:49;;;;;;;12.93;7.55;;;2.50;99.90;;;;;;5073569;28;20028;-56
2023/01/31 08:21:15;;;;;;;23.83;13.10;;;2.50;99.90;;;;;;5073797;28;20103;-55
2023/01/31 08:23:41;;;;;;;18.05;6.68;;;2.50;99.90;;;;;;5073454;28;20013;-56
2023/01/31 08:26:14;;;;;;;12.48;6.18;;;2.60;99.90;;;;;;5073514;28;20032;-56
2023/01/31 08:28:41;;;;;;;13.60;5.68;;;2.60;99.90;;;;;;5073432;28;20056;-53
2023/01/31 08:31:11;;;;;;;56.72;26.27;;;2.70;99.90;;;;;;5072166;28;20033;-50
2023/01/31 08:33:37;;;;;;;11.15;5.78;;;2.70;99.90;;;;;;5073311;28;20026;-50
2023/01/31 08:36:16;;;;;;;38.58;17.15;;;2.70;99.90;;;;;;5073105;28;20082;-52
2023/01/31 08:38:43;;;;;;;14.48;8.13;;;2.70;99.90;;;;;;5073227;28;20103;-54
2023/01/31 08:41:09;;;;;;;8.43;5.00;;;2.70;99.90;;;;;;5073259;28;20028;-49
2023/01/31 08:43:36;;;;;;;10.05;4.95;;;2.70;99.90;;;;;;5071895;28;20064;-52
2023/01/31 08:46:03;;;;;;;11.95;5.75;;;2.80;99.90;;;;;;5073002;28;20526;-54
2023/01/31 08:48:34;;;;;;;18.50;8.93;;;2.70;99.90;;;;;;5073164;28;20426;-51
2023/01/31 08:51:02;;;;;;;11.88;4.60;;;2.70;99.90;;;;;;5072833;28;20020;-52
2023/01/31 08:53:27;;;;;;;14.05;5.85;;;2.70;99.90;;;;;;5071397;28;20028;-50
2023/01/31 08:55:58;;;;;;;14.63;6.88;;;2.80;99.90;;;;;;5072949;28;20074;-52
2023/01/31 08:58:24;;;;;;;12.48;5.18;;;2.80;99.90;;;;;;5072848;28;20077;-49
2023/01/31 09:00:50;;;;;;;21.27;8.23;;;2.80;99.90;;;;;;5072901;28;20651;-53
2023/01/31 09:03:15;;;;;;;19.60;7.22;;;2.90;99.90;;;;;;5071436;28;20363;-54
2023/01/31 09:05:41;;;;;;;10.82;6.18;;;2.80;99.90;;;;;;5072854;28;20036;-48
2023/01/31 09:08:16;;;;;;;16.10;5.32;;;2.90;99.90;;;;;;5072370;28;20043;-54
2023/01/31 09:10:42;;;;;;;18.73;8.13;;;2.80;99.90;;;;;;5072350;28;20028;-52
2023/01/31 09:13:07;;;;;;;12.10;6.18;;;2.80;99.90;;;;;;5070998;28;20058;-50
2023/01/31 09:15:33;;;;;;;13.07;5.32;;;2.70;99.90;;;;;;5072464;28;20108;-50
2023/01/31 09:17:59;;;;;;;13.13;5.13;;;2.90;99.90;;;;;;5072455;28;20089;-49
2023/01/31 09:20:24;;;;;;;11.55;5.15;;;2.90;99.90;;;;;;5072597;28;20024;-50
2023/01/31 09:22:50;;;;;;;11.43;5.97;;;2.90;99.90;;;;;;5072175;28;20748;-52
2023/01/31 09:25:15;;;;;;;12.35;6.18;;;2.90;99.90;;;;;;5072505;28;20040;-52
2023/01/31 09:27:41;;;;;;;13.93;5.70;;;3.00;99.90;;;;;;5072194;28;20039;-51
2023/01/31 09:30:08;;;;;;;10.88;7.32;;;3.10;99.90;;;;;;5072362;28;20078;-53
2023/01/31 09:32:35;;;;;;;8.90;5.43;;;3.10;99.90;;;;;;5072162;28;20111;-51
2023/01/31 09:35:02;;;;;;;9.43;4.70;;;3.10;99.90;;;;;;5071880;28;20028;-49
2023/01/31 09:37:31;;;;;;;7.38;3.83;;;3.20;99.90;;;;;;5072261;28;20043;-49
2023/01/31 09:39:56;;;;;;;25.60;10.02;;;3.20;99.90;;;;;;5072212;28;20573;-50
2023/01/31 09:42:33;;;;;;;15.35;4.50;;;3.20;99.90;;;;;;5071946;28;20028;-52
2023/01/31 09:45:09;;;;;;;30.75;10.75;;;3.30;99.90;;;;;;5071627;28;20052;-50
2023/01/31 09:47:47;;;;;;;7.95;4.20;;;3.30;99.90;;;;;;5070045;28;20023;-50
2023/01/31 09:50:19;;;;;;;9.60;4.22;;;3.50;99.90;;;;;;5071981;28;20013;-56
2023/01/31 09:52:45;;;;;;;10.75;4.25;;;3.50;99.90;;;;;;5071546;28;20107;-49
2023/01/31 09:55:16;;;;;;;6.85;4.57;;;3.80;99.90;;;;;;5071351;28;20471;-53
2023/01/31 09:57:53;;;;;;;7.40;3.83;;;4.00;99.90;;;;;;5072041;28;20028;-54
2023/01/31 10:00:47;;;;;;;18.25;5.80;;;4.10;99.90;;;;;;5071726;28;20017;-55
2023/01/31 10:03:42;;;;;;;10.55;4.05;;;4.10;99.90;;;;;;5071395;28;20032;-52
2023/01/31 10:06:23;;;;;;;12.93;3.63;;;4.10;99.90;;;;;;5071486;28;20037;-53
2023/01/31 10:09:12;;;;;;;11.20;4.95;;;4.20;99.90;;;;;;5071710;28;20027;-54
2023/01/31 10:11:50;;;;;;;11.02;3.75;;;4.10;99.90;;;;;;5071230;28;20028;-53
2023/01/31 10:14:35;;;;;;;9.30;3.80;;;4.20;99.90;;;;;;5070320;28;20111;-51
2023/01/31 10:17:32;;;;;;;6.88;4.10;;;4.30;99.90;;;;;;5070316;28;20032;-56
2023/01/31 10:20:32;;;;;;;17.63;6.57;;;4.40;99.90;;;;;;5078809;28;20044;-56
2023/01/31 10:23:04;;;;;;;23.00;5.40;;;4.30;99.90;;;;;;5081490;28;20020;-51
2023/01/31 10:25:51;;;;;;;10.57;5.00;;;4.10;99.90;;;;;;5081101;28;20155;-54
2023/01/31 10:28:20;;;;;;;4.55;3.25;;;4.20;99.90;;;;;;5080919;28;20081;-54
2023/01/31 10:31:16;;;;;;;15.52;6.93;;;4.30;99.80;;;;;;5067250;28;20037;-56
2023/01/31 10:33:59;;;;;;;18.90;5.25;;;4.10;99.90;;;;;;5060144;28;20368;-57
2023/01/31 10:36:33;;;;;;;13.35;5.68;;;4.20;99.90;;;;;;5059134;28;20044;-57
2023/01/31 10:39:24;;;;;;;17.17;5.72;;;4.10;98.80;;;;;;5078228;28;20351;-51
2023/01/31 10:41:55;;;;;;;11.48;4.40;;;4.30;99.10;;;;;;5079049;28;20150;-50
2023/01/31 10:44:47;;;;;;;27.42;6.97;;;4.20;98.80;;;;;;5081214;28;20024;-54
2023/01/31 10:47:15;;;;;;;23.42;6.70;;;4.20;98.80;;;;;;5078934;28;20081;-55
2023/01/31 10:49:45;;;;;;;16.05;4.35;;;4.40;98.70;;;;;;5080991;28;20024;-50
2023/01/31 10:52:31;;;;;;;11.75;3.60;;;4.60;97.20;;;;;;5079760;28;20154;-57
2023/01/31 10:55:28;;;;;;;15.90;5.85;;;4.80;96.70;;;;;;5080704;28;20590;-58
2023/01/31 10:57:55;;;;;;;18.05;6.10;;;4.70;97.30;;;;;;5079328;28;20031;-50
2023/01/31 11:00:31;;;;;;;14.35;4.95;;;4.80;95.80;;;;;;5060271;28;20028;-54
2023/01/31 11:02:58;;;;;;;22.17;7.53;;;4.60;95.50;;;;;;5060738;28;20032;-54
2023/01/31 11:05:27;;;;;;;12.02;4.25;;;4.60;95.30;;;;;;5060445;28;20035;-51
2023/01/31 11:07:56;;;;;;;12.30;4.70;;;4.80;95.60;;;;;;5059690;28;20032;-53
2023/01/31 11:10:23;;;;;;;13.00;4.68;;;4.70;96.60;;;;;;5080197;28;20048;-55
2023/01/31 11:12:55;;;;;;;23.02;9.77;;;4.70;97.00;;;;;;5080216;28;20079;-55
2023/01/31 11:15:25;;;;;;;11.68;3.83;;;4.60;95.90;;;;;;5080885;28;20055;-55
2023/01/31 11:17:52;;;;;;;16.05;3.85;;;4.80;96.30;;;;;;5084551;28;20066;-55
2023/01/31 11:20:36;;;;;;;7.55;4.10;;;4.60;96.40;;;;;;5084105;28;20055;-56
2023/01/31 11:23:05;;;;;;;6.50;3.42;;;4.50;95.10;;;;;;5083929;28;20036;-57
2023/01/31 11:25:33;;;;;;;9.30;3.42;;;4.40;95.40;;;;;;5075647;28;20031;-51
2023/01/31 11:28:20;;;;;;;6.55;3.97;;;4.50;96.00;;;;;;5073890;28;20452;-51
2023/01/31 11:30:51;;;;;;;5.38;3.20;;;4.50;96.40;;;;;;5074443;28;20033;-58
2023/01/31 11:33:37;;;;;;;13.20;4.43;;;4.60;95.40;;;;;;5074209;28;20485;-54
2023/01/31 11:36:14;;;;;;;12.85;6.03;;;4.50;95.40;;;;;;5073921;28;20400;-54
2023/01/31 11:38:40;;;;;;;7.40;3.88;;;4.50;94.70;;;;;;5074752;28;20096;-54
2023/01/31 11:41:31;;;;;;;5.82;3.88;;;4.60;95.30;;;;;;5074778;28;20711;-50
2023/01/31 11:44:18;;;;;;;8.20;2.90;;;4.50;95.90;;;;;;5074115;28;20032;-52
2023/01/31 11:46:43;;;;;;;51.22;6.63;;;4.40;95.50;;;;;;5073098;28;20025;-51
2023/01/31 11:49:18;;;;;;;10.77;3.90;;;4.50;95.90;;;;;;5074072;28;20030;-57
2023/01/31 11:51:44;;;;;;;7.10;3.78;;;4.40;96.20;;;;;;5073688;28;20412;-55
2023/01/31 11:54:20;;;;;;;16.38;4.82;;;4.30;97.50;;;;;;5073455;28;20459;-51
2023/01/31 11:56:47;;;;;;;8.05;3.80;;;4.20;97.00;;;;;;5073519;28;20040;-56
2023/01/31 11:59:18;;;;;;;14.85;4.00;;;4.20;96.90;;;;;;5073963;28;20017;-55
2023/01/31 12:01:50;;;;;;;12.27;3.88;;;4.10;97.10;;;;;;5073826;28;20031;-53
2023/01/31 12:04:33;;;;;;;8.90;3.40;;;4.10;97.80;;;;;;5073989;28;20021;-50
2023/01/31 12:07:04;;;;;;;11.65;4.63;;;4.00;97.70;;;;;;5072621;28;20631;-53
2023/01/31 12:09:41;;;;;;;10.70;5.22;;;4.00;97.80;;;;;;5073841;28;20032;-55
2023/01/31 12:12:33;;;;;;;7.53;4.22;;;4.10;98.10;;;;;;5073629;28;20079;-52
2023/01/31 12:15:11;;;;;;;7.13;4.05;;;4.00;97.70;;;;;;5073598;28;20029;-54
2023/01/31 12:17:45;;;;;;;9.48;6.22;;;4.20;99.30;;;;;;5073690;28;20391;-53
2023/01/31 12:20:40;;;;;;;14.20;7.72;;;4.30;97.90;;;;;;5073892;28;20651;-52
2023/01/31 12:23:31;;;;;;;11.23;6.50;;;4.30;98.50;;;;;;5073419;28;20052;-56
2023/01/31 12:26:15;;;;;;;17.27;7.72;;;4.30;98.50;;;;;;5073323;28;20089;-54
2023/01/31 12:28:58;;;;;;;11.98;4.82;;;4.30;98.90;;;;;;5073277;28;20024;-52
2023/01/31 12:31:39;;;;;;;18.98;6.78;;;4.40;98.90;;;;;;5073500;28;20028;-54
2023/01/31 12:34:17;;;;;;;11.43;5.43;;;4.40;98.70;;;;;;5073253;28;20032;-52
2023/01/31 12:37:01;;;;;;;17.45;6.72;;;4.40;98.80;;;;;;5073295;28;20025;-53
2023/01/31 12:39:32;;;;;;;14.73;7.15;;;4.40;99.00;;;;;;5073342;28;20040;-53
2023/01/31 12:42:31;;;;;;;15.45;5.97;;;4.40;99.30;;;;;;5073626;28;20095;-52
2023/01/31 12:45:12;;;;;;;18.00;8.40;;;4.30;99.00;;;;;;5073568;28;20531;-53
2023/01/31 12:47:50;;;;;;;26.85;7.93;;;4.30;99.20;;;;;;5072277;28;20067;-50
2023/01/31 12:50:33;;;;;;;35.08;11.43;;;4.20;99.20;;;;;;5073613;28;20024;-53
2023/01/31 12:53:19;;;;;;;8.77;4.45;;;4.20;99.90;;;;;;5072922;28;20038;-55
2023/01/31 12:56:00;;;;;;;9.60;4.22;;;4.40;99.30;;;;;;5073053;28;20081;-54
2023/01/31 12:58:55;;;;;;;15.73;5.40;;;4.40;99.70;;;;;;5072915;28;20075;-52
2023/01/31 13:01:37;;;;;;;13.98;5.95;;;4.20;99.40;;;;;;5072702;28;20376;-55
2023/01/31 13:04:29;;;;;;;13.43;6.97;;;4.20;99.60;;;;;;5072826;28;20021;-53
2023/01/31 13:07:12;;;;;;;6.50;4.05;;;4.20;99.90;;;;;;5073009;28;20081;-53
2023/01/31 13:09:38;;;;;;;22.60;6.53;;;4.10;99.60;;;;;;5072764;28;20119;-50
2023/01/31 13:12:18;;;;;;;11.82;5.03;;;4.00;99.30;;;;;;5072467;28;20040;-57
2023/01/31 13:14:49;;;;;;;19.35;9.18;;;4.00;99.70;;;;;;5072537;28;20035;-53
2023/01/31 13:17:21;;;;;;;30.92;12.10;;;4.00;99.90;;;;;;5072410;28;20025;-54
2023/01/31 13:19:53;;;;;;;13.40;5.32;;;4.00;99.90;;;;;;5072541;28;20081;-57